sensor_id;sensor_type;location;lat;lon;timestamp;P1;durP1;ratioP1;P2;durP2;ratioP2
16354;SDS011;8287;51.644;8.494;2022-11-20T00:00:37;40.45;;;37.40;;
16354;SDS011;8287;51.644;8.494;2022-11-20T00:03:03;40.95;;;37.83;;
16354;SDS011;8287;51.644;8.494;2022-11-20T00:05:31;41.70;;;38.15;;
16354;SDS011;8287;51.644;8.494;2022-11-20T00:07:58;38.55;;;35.80;;
16354;SDS011;8287;51.644;8.494;2022-11-20T00:10:24;37.08;;;34.85;;
16354;SDS011;8287;51.644;8.494;2022-11-20T00:12:52;38.05;;;35.05;;
16354;SDS011;8287;51.644;8.494;2022-11-20T00:15:19;37.47;;;34.58;;
16354;SDS011;8287;51.644;8.494;2022-11-20T00:17:46;41.60;;;38.47;;
16354;SDS011;8287;51.644;8.494;2022-11-20T00:20:12;39.97;;;37.03;;
16354;SDS011;8287;51.644;8.494;2022-11-20T00:22:39;38.17;;;35.58;;
16354;SDS011;8287;51.644;8.494;2022-11-20T00:25:06;39.38;;;36.30;;
16354;SDS011;8287;51.644;8.494;2022-11-20T00:27:33;38.55;;;35.72;;
16354;SDS011;8287;51.644;8.494;2022-11-20T00:30:01;36.70;;;34.28;;
16354;SDS011;8287;51.644;8.494;2022-11-20T00:32:28;37.72;;;35.28;;
16354;SDS011;8287;51.644;8.494;2022-11-20T00:34:55;36.63;;;34.13;;
16354;SDS011;8287;51.644;8.494;2022-11-20T00:37:21;36.17;;;33.72;;
16354;SDS011;8287;51.644;8.494;2022-11-20T00:39:48;37.40;;;34.92;;
16354;SDS011;8287;51.644;8.494;2022-11-20T00:42:15;34.28;;;32.13;;
16354;SDS011;8287;51.644;8.494;2022-11-20T00:44:41;33.88;;;31.83;;
16354;SDS011;8287;51.644;8.494;2022-11-20T00:47:09;38.28;;;35.78;;
16354;SDS011;8287;51.644;8.494;2022-11-20T00:49:35;36.47;;;34.17;;
16354;SDS011;8287;51.644;8.494;2022-11-20T00:52:02;36.78;;;34.42;;
16354;SDS011;8287;51.644;8.494;2022-11-20T00:54:29;37.05;;;34.65;;
16354;SDS011;8287;51.644;8.494;2022-11-20T00:56:55;36.50;;;34.13;;
16354;SDS011;8287;51.644;8.494;2022-11-20T00:59:22;35.97;;;33.45;;
16354;SDS011;8287;51.644;8.494;2022-11-20T01:01:48;36.97;;;34.15;;
16354;SDS011;8287;51.644;8.494;2022-11-20T01:04:16;36.15;;;34.08;;
16354;SDS011;8287;51.644;8.494;2022-11-20T01:06:44;35.67;;;33.42;;
16354;SDS011;8287;51.644;8.494;2022-11-20T01:09:12;35.90;;;33.45;;
16354;SDS011;8287;51.644;8.494;2022-11-20T01:11:41;37.10;;;34.42;;
16354;SDS011;8287;51.644;8.494;2022-11-20T01:14:10;36.13;;;33.80;;
16354;SDS011;8287;51.644;8.494;2022-11-20T01:16:39;35.45;;;33.45;;
16354;SDS011;8287;51.644;8.494;2022-11-20T01:19:07;36.15;;;34.20;;
16354;SDS011;8287;51.644;8.494;2022-11-20T01:21:38;35.65;;;33.22;;
16354;SDS011;8287;51.644;8.494;2022-11-20T01:24:06;32.58;;;30.38;;
16354;SDS011;8287;51.644;8.494;2022-11-20T01:26:37;36.05;;;33.70;;
16354;SDS011;8287;51.644;8.494;2022-11-20T01:29:05;36.45;;;34.38;;
16354;SDS011;8287;51.644;8.494;2022-11-20T01:31:33;34.50;;;32.30;;
16354;SDS011;8287;51.644;8.494;2022-11-20T01:34:02;34.35;;;32.03;;
16354;SDS011;8287;51.644;8.494;2022-11-20T01:36:31;32.75;;;30.88;;
16354;SDS011;8287;51.644;8.494;2022-11-20T01:39:00;34.08;;;32.05;;
16354;SDS011;8287;51.644;8.494;2022-11-20T01:41:30;34.00;;;31.73;;
16354;SDS011;8287;51.644;8.494;2022-11-20T01:44:16;34.47;;;32.33;;
16354;SDS011;8287;51.644;8.494;2022-11-20T01:46:47;34.47;;;32.38;;
16354;SDS011;8287;51.644;8.494;2022-11-20T01:49:22;35.42;;;33.30;;
16354;SDS011;8287;51.644;8.494;2022-11-20T01:51:52;34.70;;;32.60;;
16354;SDS011;8287;51.644;8.494;2022-11-20T01:54:25;32.90;;;30.98;;
16354;SDS011;8287;51.644;8.494;2022-11-20T01:56:57;34.10;;;32.40;;
16354;SDS011;8287;51.644;8.494;2022-11-20T01:59:26;34.10;;;32.40;;
16354;SDS011;8287;51.644;8.494;2022-11-20T02:01:54;30.92;;;29.27;;
16354;SDS011;8287;51.644;8.494;2022-11-20T02:04:21;30.77;;;29.38;;
16354;SDS011;8287;51.644;8.494;2022-11-20T02:06:50;32.42;;;30.75;;
16354;SDS011;8287;51.644;8.494;2022-11-20T02:09:24;33.45;;;31.75;;
16354;SDS011;8287;51.644;8.494;2022-11-20T02:11:50;32.67;;;30.88;;
16354;SDS011;8287;51.644;8.494;2022-11-20T02:14:17;31.08;;;29.40;;
16354;SDS011;8287;51.644;8.494;2022-11-20T02:16:43;28.50;;;26.92;;
16354;SDS011;8287;51.644;8.494;2022-11-20T02:19:13;32.80;;;30.92;;
16354;SDS011;8287;51.644;8.494;2022-11-20T02:21:49;32.47;;;30.88;;
16354;SDS011;8287;51.644;8.494;2022-11-20T02:24:27;32.83;;;31.17;;
16354;SDS011;8287;51.644;8.494;2022-11-20T02:26:54;33.22;;;31.52;;
16354;SDS011;8287;51.644;8.494;2022-11-20T02:29:25;31.63;;;30.02;;
16354;SDS011;8287;51.644;8.494;2022-11-20T02:31:53;34.45;;;32.22;;
16354;SDS011;8287;51.644;8.494;2022-11-20T02:34:22;33.33;;;31.42;;
16354;SDS011;8287;51.644;8.494;2022-11-20T02:36:49;33.58;;;31.83;;
16354;SDS011;8287;51.644;8.494;2022-11-20T02:39:18;33.63;;;31.80;;
16354;SDS011;8287;51.644;8.494;2022-11-20T02:41:48;32.70;;;31.00;;
16354;SDS011;8287;51.644;8.494;2022-11-20T02:44:14;30.58;;;28.95;;
16354;SDS011;8287;51.644;8.494;2022-11-20T02:46:41;32.13;;;30.23;;
16354;SDS011;8287;51.644;8.494;2022-11-20T02:49:07;31.27;;;29.67;;
16354;SDS011;8287;51.644;8.494;2022-11-20T02:51:34;29.73;;;28.23;;
16354;SDS011;8287;51.644;8.494;2022-11-20T02:54:00;30.95;;;29.27;;
16354;SDS011;8287;51.644;8.494;2022-11-20T02:56:27;30.02;;;28.40;;
16354;SDS011;8287;51.644;8.494;2022-11-20T02:58:55;31.73;;;29.63;;
16354;SDS011;8287;51.644;8.494;2022-11-20T03:01:22;31.92;;;29.98;;
16354;SDS011;8287;51.644;8.494;2022-11-20T03:03:48;33.55;;;31.15;;
16354;SDS011;8287;51.644;8.494;2022-11-20T03:06:15;33.50;;;31.70;;
16354;SDS011;8287;51.644;8.494;2022-11-20T03:08:42;32.75;;;30.95;;
16354;SDS011;8287;51.644;8.494;2022-11-20T03:11:09;33.13;;;31.25;;
16354;SDS011;8287;51.644;8.494;2022-11-20T03:13:35;32.50;;;30.77;;
16354;SDS011;8287;51.644;8.494;2022-11-20T03:16:11;35.45;;;33.40;;
16354;SDS011;8287;51.644;8.494;2022-11-20T03:18:39;32.97;;;30.98;;
16354;SDS011;8287;51.644;8.494;2022-11-20T03:21:06;32.92;;;30.85;;
16354;SDS011;8287;51.644;8.494;2022-11-20T03:23:33;33.67;;;31.73;;
16354;SDS011;8287;51.644;8.494;2022-11-20T03:26:11;34.13;;;32.28;;
16354;SDS011;8287;51.644;8.494;2022-11-20T03:28:39;32.33;;;30.33;;
16354;SDS011;8287;51.644;8.494;2022-11-20T03:31:07;33.63;;;31.77;;
16354;SDS011;8287;51.644;8.494;2022-11-20T03:33:36;34.47;;;32.25;;
16354;SDS011;8287;51.644;8.494;2022-11-20T03:36:04;35.10;;;33.10;;
16354;SDS011;8287;51.644;8.494;2022-11-20T03:38:32;34.58;;;32.63;;
16354;SDS011;8287;51.644;8.494;2022-11-20T03:41:00;33.58;;;31.67;;
16354;SDS011;8287;51.644;8.494;2022-11-20T03:43:27;30.77;;;29.08;;
16354;SDS011;8287;51.644;8.494;2022-11-20T03:45:54;32.92;;;31.13;;
16354;SDS011;8287;51.644;8.494;2022-11-20T03:48:22;30.45;;;28.65;;
16354;SDS011;8287;51.644;8.494;2022-11-20T03:50:49;29.80;;;27.90;;
16354;SDS011;8287;51.644;8.494;2022-11-20T03:53:15;28.83;;;27.23;;
16354;SDS011;8287;51.644;8.494;2022-11-20T03:55:42;29.05;;;27.65;;
16354;SDS011;8287;51.644;8.494;2022-11-20T03:58:09;29.30;;;27.90;;
16354;SDS011;8287;51.644;8.494;2022-11-20T04:00:36;29.40;;;28.05;;
16354;SDS011;8287;51.644;8.494;2022-11-20T04:03:03;29.85;;;28.30;;
16354;SDS011;8287;51.644;8.494;2022-11-20T04:05:32;27.73;;;26.33;;
16354;SDS011;8287;51.644;8.494;2022-11-20T04:07:59;26.30;;;25.00;;
16354;SDS011;8287;51.644;8.494;2022-11-20T04:10:26;29.48;;;28.20;;
16354;SDS011;8287;51.644;8.494;2022-11-20T04:12:52;29.55;;;28.15;;
16354;SDS011;8287;51.644;8.494;2022-11-20T04:15:19;28.15;;;26.83;;
16354;SDS011;8287;51.644;8.494;2022-11-20T04:17:45;29.35;;;27.95;;
16354;SDS011;8287;51.644;8.494;2022-11-20T04:20:12;29.45;;;27.83;;
16354;SDS011;8287;51.644;8.494;2022-11-20T04:22:41;29.25;;;27.95;;
16354;SDS011;8287;51.644;8.494;2022-11-20T04:25:08;28.80;;;27.13;;
16354;SDS011;8287;51.644;8.494;2022-11-20T04:27:34;27.30;;;26.00;;
16354;SDS011;8287;51.644;8.494;2022-11-20T04:30:01;27.70;;;26.33;;
16354;SDS011;8287;51.644;8.494;2022-11-20T04:32:28;26.30;;;25.00;;
16354;SDS011;8287;51.644;8.494;2022-11-20T04:34:54;30.52;;;28.92;;
16354;SDS011;8287;51.644;8.494;2022-11-20T04:37:21;27.77;;;26.48;;
16354;SDS011;8287;51.644;8.494;2022-11-20T04:39:49;28.95;;;27.52;;
16354;SDS011;8287;51.644;8.494;2022-11-20T04:42:15;29.45;;;28.05;;
16354;SDS011;8287;51.644;8.494;2022-11-20T04:44:54;26.65;;;25.30;;
16354;SDS011;8287;51.644;8.494;2022-11-20T04:47:21;27.55;;;26.05;;
16354;SDS011;8287;51.644;8.494;2022-11-20T04:49:48;27.58;;;26.17;;
16354;SDS011;8287;51.644;8.494;2022-11-20T04:52:14;29.08;;;27.52;;
16354;SDS011;8287;51.644;8.494;2022-11-20T04:54:41;28.98;;;27.38;;
16354;SDS011;8287;51.644;8.494;2022-11-20T04:57:09;28.48;;;27.08;;
16354;SDS011;8287;51.644;8.494;2022-11-20T04:59:35;29.27;;;27.58;;
16354;SDS011;8287;51.644;8.494;2022-11-20T05:02:02;25.95;;;24.33;;
16354;SDS011;8287;51.644;8.494;2022-11-20T05:04:29;28.00;;;26.42;;
16354;SDS011;8287;51.644;8.494;2022-11-20T05:06:56;27.02;;;25.73;;
16354;SDS011;8287;51.644;8.494;2022-11-20T05:09:22;27.83;;;26.13;;
16354;SDS011;8287;51.644;8.494;2022-11-20T05:11:49;26.80;;;25.17;;
16354;SDS011;8287;51.644;8.494;2022-11-20T05:14:17;31.05;;;29.13;;
16354;SDS011;8287;51.644;8.494;2022-11-20T05:16:43;29.13;;;27.45;;
16354;SDS011;8287;51.644;8.494;2022-11-20T05:19:10;26.65;;;25.17;;
16354;SDS011;8287;51.644;8.494;2022-11-20T05:21:36;32.75;;;30.95;;
16354;SDS011;8287;51.644;8.494;2022-11-20T05:24:03;28.35;;;26.88;;
16354;SDS011;8287;51.644;8.494;2022-11-20T05:26:30;25.83;;;24.33;;
16354;SDS011;8287;51.644;8.494;2022-11-20T05:28:57;25.92;;;24.42;;
16354;SDS011;8287;51.644;8.494;2022-11-20T05:31:25;28.15;;;26.63;;
16354;SDS011;8287;51.644;8.494;2022-11-20T05:33:52;28.00;;;26.42;;
16354;SDS011;8287;51.644;8.494;2022-11-20T05:36:19;30.75;;;29.25;;
16354;SDS011;8287;51.644;8.494;2022-11-20T05:38:45;28.13;;;26.58;;
16354;SDS011;8287;51.644;8.494;2022-11-20T05:41:13;33.35;;;31.65;;
16354;SDS011;8287;51.644;8.494;2022-11-20T05:43:41;31.45;;;29.75;;
16354;SDS011;8287;51.644;8.494;2022-11-20T05:46:09;30.35;;;28.75;;
16354;SDS011;8287;51.644;8.494;2022-11-20T05:48:40;30.17;;;28.38;;
16354;SDS011;8287;51.644;8.494;2022-11-20T05:51:08;32.90;;;31.00;;
16354;SDS011;8287;51.644;8.494;2022-11-20T05:53:36;29.30;;;27.70;;
16354;SDS011;8287;51.644;8.494;2022-11-20T05:56:05;27.77;;;26.27;;
16354;SDS011;8287;51.644;8.494;2022-11-20T05:58:33;30.80;;;28.98;;
16354;SDS011;8287;51.644;8.494;2022-11-20T06:01:03;31.83;;;30.02;;
16354;SDS011;8287;51.644;8.494;2022-11-20T06:03:31;33.00;;;31.40;;
16354;SDS011;8287;51.644;8.494;2022-11-20T06:05:59;33.95;;;31.98;;
16354;SDS011;8287;51.644;8.494;2022-11-20T06:08:28;35.78;;;33.88;;
16354;SDS011;8287;51.644;8.494;2022-11-20T06:10:55;34.90;;;32.85;;
16354;SDS011;8287;51.644;8.494;2022-11-20T06:13:22;31.38;;;29.67;;
16354;SDS011;8287;51.644;8.494;2022-11-20T06:15:49;31.35;;;29.70;;
16354;SDS011;8287;51.644;8.494;2022-11-20T06:18:16;29.65;;;27.73;;
16354;SDS011;8287;51.644;8.494;2022-11-20T06:20:44;34.60;;;32.80;;
16354;SDS011;8287;51.644;8.494;2022-11-20T06:23:12;31.02;;;29.27;;
16354;SDS011;8287;51.644;8.494;2022-11-20T06:25:39;27.95;;;26.35;;
16354;SDS011;8287;51.644;8.494;2022-11-20T06:28:06;26.92;;;25.55;;
16354;SDS011;8287;51.644;8.494;2022-11-20T06:30:33;30.08;;;28.50;;
16354;SDS011;8287;51.644;8.494;2022-11-20T06:32:59;32.83;;;30.98;;
16354;SDS011;8287;51.644;8.494;2022-11-20T06:35:26;29.67;;;28.17;;
16354;SDS011;8287;51.644;8.494;2022-11-20T06:37:52;33.78;;;31.25;;
16354;SDS011;8287;51.644;8.494;2022-11-20T06:40:20;27.05;;;25.65;;
16354;SDS011;8287;51.644;8.494;2022-11-20T06:42:47;23.45;;;22.08;;
16354;SDS011;8287;51.644;8.494;2022-11-20T06:45:13;25.80;;;24.45;;
16354;SDS011;8287;51.644;8.494;2022-11-20T06:47:40;28.10;;;26.60;;
16354;SDS011;8287;51.644;8.494;2022-11-20T06:50:07;32.08;;;30.38;;
16354;SDS011;8287;51.644;8.494;2022-11-20T06:52:34;33.45;;;31.80;;
16354;SDS011;8287;51.644;8.494;2022-11-20T06:55:00;32.15;;;30.30;;
16354;SDS011;8287;51.644;8.494;2022-11-20T06:57:28;26.67;;;25.15;;
16354;SDS011;8287;51.644;8.494;2022-11-20T06:59:55;26.50;;;25.00;;
16354;SDS011;8287;51.644;8.494;2022-11-20T07:02:21;25.58;;;23.60;;
16354;SDS011;8287;51.644;8.494;2022-11-20T07:04:48;29.90;;;28.20;;
16354;SDS011;8287;51.644;8.494;2022-11-20T07:07:15;29.05;;;27.45;;
16354;SDS011;8287;51.644;8.494;2022-11-20T07:09:41;33.83;;;31.85;;
16354;SDS011;8287;51.644;8.494;2022-11-20T07:12:08;45.42;;;42.97;;
16354;SDS011;8287;51.644;8.494;2022-11-20T07:14:36;39.33;;;37.15;;
16354;SDS011;8287;51.644;8.494;2022-11-20T07:17:02;38.63;;;36.53;;
16354;SDS011;8287;51.644;8.494;2022-11-20T07:19:29;37.03;;;34.83;;
16354;SDS011;8287;51.644;8.494;2022-11-20T07:21:55;37.03;;;34.78;;
16354;SDS011;8287;51.644;8.494;2022-11-20T07:24:22;41.75;;;38.63;;
16354;SDS011;8287;51.644;8.494;2022-11-20T07:26:48;46.63;;;44.08;;
16354;SDS011;8287;51.644;8.494;2022-11-20T07:29:15;36.30;;;34.13;;
16354;SDS011;8287;51.644;8.494;2022-11-20T07:31:43;35.33;;;33.25;;
16354;SDS011;8287;51.644;8.494;2022-11-20T07:34:10;35.65;;;33.42;;
16354;SDS011;8287;51.644;8.494;2022-11-20T07:36:36;38.00;;;35.42;;
16354;SDS011;8287;51.644;8.494;2022-11-20T07:39:03;41.17;;;38.78;;
16354;SDS011;8287;51.644;8.494;2022-11-20T07:41:30;36.55;;;33.88;;
16354;SDS011;8287;51.644;8.494;2022-11-20T07:43:56;40.55;;;38.00;;
16354;SDS011;8287;51.644;8.494;2022-11-20T07:46:23;41.20;;;38.90;;
16354;SDS011;8287;51.644;8.494;2022-11-20T07:48:51;37.60;;;35.05;;
16354;SDS011;8287;51.644;8.494;2022-11-20T07:51:17;38.83;;;36.45;;
16354;SDS011;8287;51.644;8.494;2022-11-20T07:53:44;34.60;;;32.50;;
16354;SDS011;8287;51.644;8.494;2022-11-20T07:56:10;71.03;;;67.25;;
16354;SDS011;8287;51.644;8.494;2022-11-20T07:58:39;39.40;;;37.00;;
16354;SDS011;8287;51.644;8.494;2022-11-20T08:01:06;34.28;;;32.13;;
16354;SDS011;8287;51.644;8.494;2022-11-20T08:03:33;37.28;;;35.03;;
16354;SDS011;8287;51.644;8.494;2022-11-20T08:06:04;33.03;;;30.52;;
16354;SDS011;8287;51.644;8.494;2022-11-20T08:08:31;32.72;;;30.58;;
16354;SDS011;8287;51.644;8.494;2022-11-20T08:10:57;33.95;;;31.85;;
16354;SDS011;8287;51.644;8.494;2022-11-20T08:13:45;32.35;;;30.50;;
16354;SDS011;8287;51.644;8.494;2022-11-20T08:16:29;31.92;;;29.60;;
16354;SDS011;8287;51.644;8.494;2022-11-20T08:18:55;33.90;;;31.35;;
16354;SDS011;8287;51.644;8.494;2022-11-20T08:21:23;28.88;;;27.05;;
16354;SDS011;8287;51.644;8.494;2022-11-20T08:23:50;34.50;;;32.05;;
16354;SDS011;8287;51.644;8.494;2022-11-20T08:26:17;47.72;;;44.85;;
16354;SDS011;8287;51.644;8.494;2022-11-20T08:28:43;36.60;;;33.67;;
16354;SDS011;8287;51.644;8.494;2022-11-20T08:31:10;35.58;;;33.50;;
16354;SDS011;8287;51.644;8.494;2022-11-20T08:33:36;33.60;;;31.10;;
16354;SDS011;8287;51.644;8.494;2022-11-20T08:36:03;34.10;;;31.83;;
16354;SDS011;8287;51.644;8.494;2022-11-20T08:38:32;33.78;;;31.63;;
16354;SDS011;8287;51.644;8.494;2022-11-20T08:40:59;36.55;;;33.92;;
16354;SDS011;8287;51.644;8.494;2022-11-20T08:43:44;32.88;;;30.92;;
16354;SDS011;8287;51.644;8.494;2022-11-20T08:46:10;33.13;;;31.27;;
16354;SDS011;8287;51.644;8.494;2022-11-20T08:48:37;33.83;;;31.63;;
16354;SDS011;8287;51.644;8.494;2022-11-20T08:51:04;33.55;;;31.23;;
16354;SDS011;8287;51.644;8.494;2022-11-20T08:53:32;28.95;;;27.10;;
16354;SDS011;8287;51.644;8.494;2022-11-20T08:55:59;32.55;;;30.58;;
16354;SDS011;8287;51.644;8.494;2022-11-20T08:58:26;32.05;;;30.02;;
16354;SDS011;8287;51.644;8.494;2022-11-20T09:00:52;31.05;;;29.00;;
16354;SDS011;8287;51.644;8.494;2022-11-20T09:03:19;32.40;;;30.20;;
16354;SDS011;8287;51.644;8.494;2022-11-20T09:05:46;44.03;;;40.90;;
16354;SDS011;8287;51.644;8.494;2022-11-20T09:08:12;43.67;;;41.17;;
16354;SDS011;8287;51.644;8.494;2022-11-20T09:10:40;36.58;;;33.78;;
16354;SDS011;8287;51.644;8.494;2022-11-20T09:13:07;33.03;;;30.58;;
16354;SDS011;8287;51.644;8.494;2022-11-20T09:15:33;28.15;;;26.25;;
16354;SDS011;8287;51.644;8.494;2022-11-20T09:18:01;31.10;;;28.92;;
16354;SDS011;8287;51.644;8.494;2022-11-20T09:20:29;31.38;;;29.48;;
16354;SDS011;8287;51.644;8.494;2022-11-20T09:22:56;27.73;;;26.15;;
16354;SDS011;8287;51.644;8.494;2022-11-20T09:25:24;28.55;;;26.55;;
16354;SDS011;8287;51.644;8.494;2022-11-20T09:27:55;30.98;;;28.77;;
16354;SDS011;8287;51.644;8.494;2022-11-20T09:30:22;30.63;;;28.63;;
16354;SDS011;8287;51.644;8.494;2022-11-20T09:32:49;31.25;;;28.73;;
16354;SDS011;8287;51.644;8.494;2022-11-20T09:35:15;30.83;;;28.63;;
16354;SDS011;8287;51.644;8.494;2022-11-20T09:37:42;30.40;;;27.95;;
16354;SDS011;8287;51.644;8.494;2022-11-20T09:40:09;32.13;;;29.95;;
16354;SDS011;8287;51.644;8.494;2022-11-20T09:42:45;30.95;;;28.58;;
16354;SDS011;8287;51.644;8.494;2022-11-20T09:45:23;31.17;;;29.27;;
16354;SDS011;8287;51.644;8.494;2022-11-20T09:50:53;31.70;;;29.70;;
16354;SDS011;8287;51.644;8.494;2022-11-20T09:53:30;36.95;;;34.47;;
16354;SDS011;8287;51.644;8.494;2022-11-20T09:56:08;37.22;;;34.65;;
16354;SDS011;8287;51.644;8.494;2022-11-20T09:58:38;67.07;;;63.38;;
16354;SDS011;8287;51.644;8.494;2022-11-20T10:01:11;36.05;;;33.75;;
16354;SDS011;8287;51.644;8.494;2022-11-20T10:03:42;38.50;;;36.03;;
16354;SDS011;8287;51.644;8.494;2022-11-20T10:06:17;40.47;;;37.95;;
16354;SDS011;8287;51.644;8.494;2022-11-20T10:08:48;40.15;;;37.65;;
16354;SDS011;8287;51.644;8.494;2022-11-20T10:11:24;37.33;;;35.22;;
16354;SDS011;8287;51.644;8.494;2022-11-20T10:14:01;36.90;;;34.47;;
16354;SDS011;8287;51.644;8.494;2022-11-20T10:16:45;39.53;;;36.58;;
16354;SDS011;8287;51.644;8.494;2022-11-20T10:19:30;39.75;;;36.50;;
16354;SDS011;8287;51.644;8.494;2022-11-20T10:22:12;38.63;;;35.80;;
16354;SDS011;8287;51.644;8.494;2022-11-20T10:24:51;35.67;;;33.45;;
16354;SDS011;8287;51.644;8.494;2022-11-20T10:27:30;36.33;;;33.80;;
16354;SDS011;8287;51.644;8.494;2022-11-20T10:30:08;37.03;;;34.70;;
16354;SDS011;8287;51.644;8.494;2022-11-20T10:32:38;35.65;;;33.33;;
16354;SDS011;8287;51.644;8.494;2022-11-20T10:35:07;39.83;;;36.97;;
16354;SDS011;8287;51.644;8.494;2022-11-20T10:37:44;41.78;;;39.20;;
16354;SDS011;8287;51.644;8.494;2022-11-20T10:40:18;44.15;;;40.75;;
16354;SDS011;8287;51.644;8.494;2022-11-20T10:42:50;46.95;;;44.05;;
16354;SDS011;8287;51.644;8.494;2022-11-20T10:45:21;49.05;;;46.08;;
16354;SDS011;8287;51.644;8.494;2022-11-20T10:48:04;48.08;;;45.33;;
16354;SDS011;8287;51.644;8.494;2022-11-20T10:50:37;47.10;;;44.33;;
16354;SDS011;8287;51.644;8.494;2022-11-20T10:53:13;50.80;;;47.42;;
16354;SDS011;8287;51.644;8.494;2022-11-20T10:55:48;48.05;;;45.08;;
16354;SDS011;8287;51.644;8.494;2022-11-20T10:58:22;48.15;;;45.20;;
16354;SDS011;8287;51.644;8.494;2022-11-20T11:01:02;50.88;;;47.35;;
16354;SDS011;8287;51.644;8.494;2022-11-20T11:03:31;53.35;;;49.30;;
16354;SDS011;8287;51.644;8.494;2022-11-20T11:06:00;50.55;;;47.45;;
16354;SDS011;8287;51.644;8.494;2022-11-20T11:08:35;47.25;;;44.42;;
16354;SDS011;8287;51.644;8.494;2022-11-20T11:11:07;50.22;;;47.38;;
16354;SDS011;8287;51.644;8.494;2022-11-20T11:13:44;50.85;;;47.25;;
16354;SDS011;8287;51.644;8.494;2022-11-20T11:16:16;51.80;;;48.78;;
16354;SDS011;8287;51.644;8.494;2022-11-20T11:18:48;54.22;;;50.97;;
16354;SDS011;8287;51.644;8.494;2022-11-20T11:21:19;57.15;;;53.53;;
16354;SDS011;8287;51.644;8.494;2022-11-20T11:23:56;46.20;;;43.53;;
16354;SDS011;8287;51.644;8.494;2022-11-20T11:26:24;49.42;;;46.65;;
16354;SDS011;8287;51.644;8.494;2022-11-20T11:28:52;51.05;;;48.03;;
16354;SDS011;8287;51.644;8.494;2022-11-20T11:31:24;51.25;;;48.05;;
16354;SDS011;8287;51.644;8.494;2022-11-20T11:34:02;53.55;;;50.05;;
16354;SDS011;8287;51.644;8.494;2022-11-20T11:36:30;50.35;;;47.25;;
16354;SDS011;8287;51.644;8.494;2022-11-20T11:39:00;51.78;;;48.33;;
16354;SDS011;8287;51.644;8.494;2022-11-20T11:41:28;53.00;;;50.00;;
16354;SDS011;8287;51.644;8.494;2022-11-20T11:44:00;52.47;;;49.45;;
16354;SDS011;8287;51.644;8.494;2022-11-20T11:46:49;57.63;;;53.60;;
16354;SDS011;8287;51.644;8.494;2022-11-20T11:49:21;56.33;;;52.85;;
16354;SDS011;8287;51.644;8.494;2022-11-20T11:54:41;44.05;;;41.25;;
16354;SDS011;8287;51.644;8.494;2022-11-20T11:57:15;48.53;;;45.42;;
16354;SDS011;8287;51.644;8.494;2022-11-20T11:59:51;40.33;;;37.45;;
16354;SDS011;8287;51.644;8.494;2022-11-20T12:02:29;41.60;;;38.92;;
16354;SDS011;8287;51.644;8.494;2022-11-20T12:05:05;44.83;;;41.35;;
16354;SDS011;8287;51.644;8.494;2022-11-20T12:07:42;36.72;;;34.53;;
16354;SDS011;8287;51.644;8.494;2022-11-20T12:10:14;36.85;;;34.67;;
16354;SDS011;8287;51.644;8.494;2022-11-20T12:12:46;36.10;;;34.05;;
16354;SDS011;8287;51.644;8.494;2022-11-20T12:15:21;36.55;;;34.40;;
16354;SDS011;8287;51.644;8.494;2022-11-20T12:17:52;33.38;;;31.27;;
16354;SDS011;8287;51.644;8.494;2022-11-20T12:20:20;33.70;;;31.50;;
16354;SDS011;8287;51.644;8.494;2022-11-20T12:22:52;32.38;;;30.42;;
16354;SDS011;8287;51.644;8.494;2022-11-20T12:25:27;33.22;;;30.98;;
16354;SDS011;8287;51.644;8.494;2022-11-20T12:28:03;32.05;;;29.73;;
16354;SDS011;8287;51.644;8.494;2022-11-20T12:30:47;28.45;;;26.63;;
16354;SDS011;8287;51.644;8.494;2022-11-20T12:33:37;31.10;;;29.08;;
16354;SDS011;8287;51.644;8.494;2022-11-20T12:36:27;30.75;;;28.50;;
16354;SDS011;8287;51.644;8.494;2022-11-20T12:39:05;28.83;;;26.73;;
16354;SDS011;8287;51.644;8.494;2022-11-20T12:41:43;30.58;;;28.65;;
16354;SDS011;8287;51.644;8.494;2022-11-20T12:44:39;26.52;;;24.73;;
16354;SDS011;8287;51.644;8.494;2022-11-20T12:47:40;30.25;;;28.23;;
16354;SDS011;8287;51.644;8.494;2022-11-20T12:50:22;28.75;;;26.95;;
16354;SDS011;8287;51.644;8.494;2022-11-20T12:53:00;30.48;;;28.58;;
16354;SDS011;8287;51.644;8.494;2022-11-20T12:55:36;29.55;;;27.80;;
16354;SDS011;8287;51.644;8.494;2022-11-20T12:58:15;25.30;;;23.67;;
16354;SDS011;8287;51.644;8.494;2022-11-20T13:00:51;28.05;;;25.88;;
16354;SDS011;8287;51.644;8.494;2022-11-20T13:03:29;29.75;;;27.63;;
16354;SDS011;8287;51.644;8.494;2022-11-20T13:06:13;27.52;;;25.75;;
16354;SDS011;8287;51.644;8.494;2022-11-20T13:08:45;26.52;;;24.73;;
16354;SDS011;8287;51.644;8.494;2022-11-20T13:11:18;25.73;;;23.83;;
16354;SDS011;8287;51.644;8.494;2022-11-20T13:13:56;27.38;;;25.75;;
16354;SDS011;8287;51.644;8.494;2022-11-20T13:16:36;25.13;;;23.30;;
16354;SDS011;8287;51.644;8.494;2022-11-20T13:19:09;27.95;;;25.98;;
16354;SDS011;8287;51.644;8.494;2022-11-20T13:21:38;26.45;;;24.85;;
16354;SDS011;8287;51.644;8.494;2022-11-20T13:24:20;26.10;;;24.60;;
16354;SDS011;8287;51.644;8.494;2022-11-20T13:26:59;24.73;;;23.08;;
16354;SDS011;8287;51.644;8.494;2022-11-20T13:29:31;24.25;;;22.65;;
16354;SDS011;8287;51.644;8.494;2022-11-20T13:32:02;26.40;;;24.55;;
16354;SDS011;8287;51.644;8.494;2022-11-20T13:34:31;25.77;;;23.95;;
16354;SDS011;8287;51.644;8.494;2022-11-20T13:36:59;28.48;;;26.48;;
16354;SDS011;8287;51.644;8.494;2022-11-20T13:39:30;27.08;;;25.13;;
16354;SDS011;8287;51.644;8.494;2022-11-20T13:41:59;28.42;;;26.73;;
16354;SDS011;8287;51.644;8.494;2022-11-20T13:44:29;28.80;;;26.88;;
16354;SDS011;8287;51.644;8.494;2022-11-20T13:47:00;30.92;;;28.85;;
16354;SDS011;8287;51.644;8.494;2022-11-20T13:49:29;28.30;;;26.70;;
16354;SDS011;8287;51.644;8.494;2022-11-20T13:52:02;29.58;;;27.75;;
16354;SDS011;8287;51.644;8.494;2022-11-20T13:54:57;28.90;;;27.10;;
16354;SDS011;8287;51.644;8.494;2022-11-20T13:57:54;28.70;;;26.88;;
16354;SDS011;8287;51.644;8.494;2022-11-20T14:00:28;29.23;;;27.38;;
16354;SDS011;8287;51.644;8.494;2022-11-20T14:03:00;28.25;;;26.65;;
16354;SDS011;8287;51.644;8.494;2022-11-20T14:05:38;28.77;;;26.75;;
16354;SDS011;8287;51.644;8.494;2022-11-20T14:08:14;26.92;;;25.23;;
16354;SDS011;8287;51.644;8.494;2022-11-20T14:10:51;27.15;;;25.27;;
16354;SDS011;8287;51.644;8.494;2022-11-20T14:13:29;25.42;;;23.60;;
16354;SDS011;8287;51.644;8.494;2022-11-20T14:15:56;26.20;;;24.38;;
16354;SDS011;8287;51.644;8.494;2022-11-20T14:18:25;26.60;;;25.00;;
16354;SDS011;8287;51.644;8.494;2022-11-20T14:20:52;23.77;;;21.77;;
16354;SDS011;8287;51.644;8.494;2022-11-20T14:23:26;25.95;;;24.13;;
16354;SDS011;8287;51.644;8.494;2022-11-20T14:25:55;26.27;;;24.50;;
16354;SDS011;8287;51.644;8.494;2022-11-20T14:28:24;25.52;;;23.38;;
16354;SDS011;8287;51.644;8.494;2022-11-20T14:30:53;25.42;;;23.83;;
16354;SDS011;8287;51.644;8.494;2022-11-20T14:33:21;26.83;;;25.10;;
16354;SDS011;8287;51.644;8.494;2022-11-20T14:35:51;27.90;;;26.05;;
16354;SDS011;8287;51.644;8.494;2022-11-20T14:38:20;26.70;;;24.83;;
16354;SDS011;8287;51.644;8.494;2022-11-20T14:41:05;28.38;;;26.33;;
16354;SDS011;8287;51.644;8.494;2022-11-20T14:43:33;28.75;;;26.95;;
16354;SDS011;8287;51.644;8.494;2022-11-20T14:46:02;26.20;;;24.55;;
16354;SDS011;8287;51.644;8.494;2022-11-20T14:48:31;28.50;;;26.50;;
16354;SDS011;8287;51.644;8.494;2022-11-20T14:51:03;29.70;;;27.55;;
16354;SDS011;8287;51.644;8.494;2022-11-20T14:53:30;28.02;;;25.95;;
16354;SDS011;8287;51.644;8.494;2022-11-20T14:55:57;31.13;;;28.73;;